Time;durP1;ratioP1;P1;durP2;ratioP2;P2;SDS_P1;SDS_P2;PMS_P1;PMS_P2;Temp;Humidity;BMP_temperature;BMP_pressure;BME280_temperature;BME280_humidity;BME280_pressure;Samples;Min_cycle;Max_cycle;Signal;HPM_P1;HPM_P2
2021/11/04 00:01:38;;;;;;;2.95;2.65;;;9.20;99.90;;;;;;5053583;28;20081;-85
2021/11/04 00:04:04;;;;;;;3.20;2.42;;;9.70;99.90;;;;;;5051352;28;20113;-84
2021/11/04 00:06:30;;;;;;;5.35;4.00;;;9.70;99.90;;;;;;5071495;28;20032;-84
2021/11/04 00:08:56;;;;;;;5.32;4.07;;;9.70;99.90;;;;;;5056166;28;20032;-84
2021/11/04 00:11:21;;;;;;;6.45;3.95;;;9.10;99.90;;;;;;5055640;28;20029;-84
2021/11/04 00:13:47;;;;;;;5.53;4.07;;;9.10;99.90;;;;;;5054749;28;20021;-84
2021/11/04 00:16:13;;;;;;;8.70;5.50;;;9.10;99.90;;;;;;5051215;28;20017;-83
2021/11/04 00:18:39;;;;;;;3.92;3.13;;;9.40;99.90;;;;;;5056731;28;20036;-84
2021/11/04 00:21:06;;;;;;;2.65;2.45;;;9.40;99.90;;;;;;5055511;28;20071;-84
2021/11/04 00:23:32;;;;;;;5.85;3.65;;;8.90;99.90;;;;;;5054934;28;20067;-84
2021/11/04 00:25:58;;;;;;;6.00;3.60;;;8.90;99.90;;;;;;5052793;28;20084;-84
2021/11/04 00:28:24;;;;;;;6.13;4.90;;;8.80;99.90;;;;;;5051682;28;20034;-84
2021/11/04 00:30:49;;;;;;;10.98;8.05;;;9.00;99.90;;;;;;5053707;28;20029;-84
2021/11/04 00:33:15;;;;;;;9.30;6.40;;;9.70;99.90;;;;;;5056402;28;20033;-84
2021/11/04 00:35:41;;;;;;;6.20;4.90;;;9.50;99.90;;;;;;5054885;28;20029;-84
2021/11/04 00:38:07;;;;;;;5.25;3.85;;;9.00;99.90;;;;;;5054937;28;20060;-84
2021/11/04 00:40:33;;;;;;;5.65;4.50;;;8.90;99.90;;;;;;5052197;28;20031;-83
2021/11/04 00:42:59;;;;;;;7.18;5.18;;;9.50;99.90;;;;;;5051418;28;20123;-84
2021/11/04 00:45:25;;;;;;;5.72;4.03;;;9.30;99.90;;;;;;5055238;28;20151;-84
2021/11/04 00:47:52;;;;;;;5.35;4.43;;;9.40;99.90;;;;;;5054488;28;20402;-85
2021/11/04 00:50:19;;;;;;;4.57;4.13;;;9.60;99.90;;;;;;5054488;28;20596;-84
2021/11/04 00:52:45;;;;;;;4.60;4.20;;;9.40;99.90;;;;;;5054502;28;20059;-84
2021/11/04 00:55:11;;;;;;;3.08;2.80;;;9.70;99.90;;;;;;5050860;28;20029;-84
2021/11/04 00:57:36;;;;;;;4.50;2.80;;;9.70;99.90;;;;;;5055734;28;20114;-84
2021/11/04 01:00:08;;;;;;;3.17;2.88;;;9.80;99.90;;;;;;5054692;28;20039;-84
2021/11/04 01:02:34;;;;;;;3.20;2.90;;;9.20;99.90;;;;;;5053773;28;20029;-84
2021/11/04 01:05:00;;;;;;;3.15;2.85;;;9.20;99.90;;;;;;5054489;28;20028;-84
2021/11/04 01:07:25;;;;;;;3.25;2.88;;;9.20;99.90;;;;;;5052204;28;20090;-84
2021/11/04 01:09:51;;;;;;;4.03;3.03;;;9.70;99.90;;;;;;5052395;28;20068;-84
2021/11/04 01:12:17;;;;;;;4.50;2.83;;;9.10;99.90;;;;;;5055430;28;20021;-84
2021/11/04 01:14:44;;;;;;;5.03;3.47;;;9.10;99.90;;;;;;5054070;28;20378;-84
2021/11/04 01:17:10;;;;;;;4.05;3.25;;;9.60;99.90;;;;;;5054751;28;20032;-83
2021/11/04 01:19:36;;;;;;;3.97;3.20;;;9.60;99.90;;;;;;5051892;28;20028;-83
2021/11/04 01:22:02;;;;;;;5.28;3.38;;;9.40;99.90;;;;;;5050094;28;20088;-84
2021/11/04 01:24:28;;;;;;;4.07;3.67;;;8.80;99.90;;;;;;5054819;28;20028;-83
2021/11/04 01:26:53;;;;;;;6.50;4.78;;;8.80;99.90;;;;;;5053677;28;20041;-84
2021/11/04 01:29:19;;;;;;;7.25;4.72;;;9.60;99.90;;;;;;5054531;28;20059;-84
2021/11/04 01:31:45;;;;;;;5.88;4.03;;;9.00;99.90;;;;;;5053682;28;20074;-83
2021/11/04 01:34:10;;;;;;;3.60;3.10;;;9.10;99.90;;;;;;5049595;28;20021;-84
2021/11/04 01:36:36;;;;;;;3.80;3.22;;;9.10;99.90;;;;;;5056104;28;20102;-84
2021/11/04 01:39:03;;;;;;;4.70;3.92;;;9.20;99.90;;;;;;5053519;28;20555;-84
2021/11/04 01:41:28;;;;;;;5.93;3.90;;;9.80;99.90;;;;;;5053458;28;20525;-84
2021/11/04 01:43:54;;;;;;;5.60;4.00;;;9.60;99.90;;;;;;5053756;28;20028;-83
2021/11/04 01:46:23;;;;;;;4.85;3.67;;;9.40;99.90;;;;;;5050881;28;20029;-84
2021/11/04 01:48:49;;;;;;;5.13;3.20;;;9.40;99.90;;;;;;5052767;28;20058;-84
2021/11/04 01:51:17;;;;;;;3.63;3.08;;;9.80;99.90;;;;;;5055278;28;20433;-83
2021/11/04 01:53:43;;;;;;;4.05;3.00;;;9.30;99.90;;;;;;5053683;28;20111;-84
2021/11/04 01:56:08;;;;;;;6.65;3.95;;;9.40;99.90;;;;;;5053270;28;20485;-84
2021/11/04 01:58:34;;;;;;;3.45;3.15;;;9.30;99.90;;;;;;5051656;28;20103;-84
2021/11/04 02:01:00;;;;;;;5.22;3.17;;;9.40;99.90;;;;;;5050459;28;20452;-83
2021/11/04 02:03:42;;;;;;;4.50;3.30;;;9.90;99.90;;;;;;5054498;28;20071;-84
2021/11/04 02:06:17;;;;;;;6.13;3.40;;;9.80;99.90;;;;;;5052559;28;20562;-83
2021/11/04 02:09:04;;;;;;;4.07;3.67;;;9.30;99.90;;;;;;5053833;28;20075;-83
2021/11/04 02:11:33;;;;;;;4.78;3.97;;;9.30;99.90;;;;;;5052139;28;20503;-83
2021/11/04 02:14:08;;;;;;;4.93;3.55;;;9.60;99.90;;;;;;5053915;28;20047;-84
2021/11/04 02:16:34;;;;;;;4.35;3.30;;;9.50;99.90;;;;;;5051832;28;20020;-84
2021/11/04 02:19:13;;;;;;;4.00;3.40;;;9.50;99.90;;;;;;5049987;28;20033;-84
2021/11/04 02:21:44;;;;;;;4.45;3.55;;;9.00;99.90;;;;;;5063488;28;20012;-84
2021/11/04 02:24:28;;;;;;;5.18;3.35;;;9.10;99.90;;;;;;5051988;28;20039;-84
2021/11/04 02:26:54;;;;;;;3.60;3.30;;;9.20;99.90;;;;;;5053570;28;20037;-84
2021/11/04 02:29:20;;;;;;;4.00;3.60;;;9.70;99.90;;;;;;5053195;28;20028;-85
2021/11/04 02:31:49;;;;;;;4.45;3.55;;;9.60;99.90;;;;;;5053752;28;20029;-83
2021/11/04 02:34:15;;;;;;;3.97;3.58;;;9.30;99.90;;;;;;5049406;28;20036;-83
2021/11/04 02:36:42;;;;;;;5.65;3.58;;;9.80;99.90;;;;;;5054785;28;20424;-84
2021/11/04 02:39:09;;;;;;;5.75;4.10;;;9.70;99.90;;;;;;5051941;28;20386;-84
2021/11/04 02:41:35;;;;;;;9.00;5.43;;;9.40;99.90;;;;;;5052027;28;20049;-84
2021/11/04 02:44:08;;;;;;;9.23;5.75;;;9.40;99.90;;;;;;5052149;28;20493;-84
2021/11/04 02:46:33;;;;;;;12.43;7.90;;;9.50;99.90;;;;;;5051901;28;20179;-84
2021/11/04 02:48:59;;;;;;;17.67;10.55;;;9.80;99.90;;;;;;5050488;28;20104;-84
2021/11/04 02:51:25;;;;;;;18.55;11.35;;;9.50;99.90;;;;;;5058772;28;20060;-84
2021/11/04 02:53:50;;;;;;;16.55;9.93;;;9.80;99.90;;;;;;5056479;28;20519;-84
2021/11/04 02:56:16;;;;;;;14.13;9.13;;;9.80;99.90;;;;;;5057045;28;20048;-84
2021/11/04 02:58:42;;;;;;;6.80;5.07;;;9.70;99.90;;;;;;5056635;28;20035;-84
2021/11/04 03:01:08;;;;;;;5.35;4.13;;;9.80;99.90;;;;;;5053000;28;20035;-84
2021/11/04 03:03:34;;;;;;;4.72;4.22;;;9.70;99.90;;;;;;5058282;28;20029;-83
2021/11/04 03:06:00;;;;;;;5.05;4.07;;;9.50;99.90;;;;;;5057124;28;20405;-84
2021/11/04 03:08:26;;;;;;;8.38;4.85;;;9.20;99.90;;;;;;5056052;28;20036;-84
2021/11/04 03:10:55;;;;;;;5.93;4.43;;;9.30;99.90;;;;;;5056264;28;20093;-84
2021/11/04 03:13:20;;;;;;;7.03;4.88;;;9.60;99.90;;;;;;5053733;28;20040;-84
2021/11/04 03:15:53;;;;;;;5.32;4.30;;;9.80;99.90;;;;;;5056545;28;20026;-84
2021/11/04 03:18:18;;;;;;;5.00;3.65;;;9.30;99.90;;;;;;5058382;28;20489;-84
2021/11/04 03:20:48;;;;;;;4.35;3.55;;;9.40;99.90;;;;;;5054947;28;20087;-84
2021/11/04 03:23:16;;;;;;;6.60;4.00;;;9.70;99.90;;;;;;5056053;28;20025;-84
2021/11/04 03:25:44;;;;;;;4.75;3.45;;;9.30;99.90;;;;;;5055985;28;20044;-84
2021/11/04 03:28:11;;;;;;;6.30;3.80;;;9.80;99.90;;;;;;5036105;28;20398;-84
2021/11/04 03:30:41;;;;;;;4.57;3.42;;;9.60;99.90;;;;;;5065575;28;20024;-84
2021/11/04 03:33:08;;;;;;;5.15;3.42;;;9.20;99.90;;;;;;5056489;28;20448;-84
2021/11/04 03:35:36;;;;;;;5.40;3.25;;;9.20;99.90;;;;;;5055990;28;20029;-84
2021/11/04 03:38:06;;;;;;;3.85;3.20;;;9.70;99.90;;;;;;5055864;28;20028;-84
2021/11/04 03:40:32;;;;;;;3.42;3.13;;;9.10;99.90;;;;;;5054857;28;20401;-84
2021/11/04 03:42:58;;;;;;;4.70;3.40;;;9.10;99.90;;;;;;5053226;28;20029;-84
2021/11/04 03:45:24;;;;;;;5.07;3.33;;;9.00;99.90;;;;;;5057570;28;20017;-84
2021/11/04 03:47:50;;;;;;;5.15;3.47;;;9.60;99.90;;;;;;5056934;28;20475;-84
2021/11/04 03:50:18;;;;;;;4.13;3.08;;;9.60;99.90;;;;;;5056009;28;20033;-84
2021/11/04 03:52:45;;;;;;;4.95;3.60;;;9.30;99.90;;;;;;5055038;28;20021;-84
2021/11/04 03:55:13;;;;;;;4.82;3.42;;;9.60;99.90;;;;;;5049780;28;20492;-84
2021/11/04 03:57:44;;;;;;;5.95;3.72;;;9.50;99.90;;;;;;5057052;28;20025;-84
2021/11/04 04:00:12;;;;;;;3.70;3.40;;;9.70;99.90;;;;;;5054971;28;20112;-84
2021/11/04 04:02:38;;;;;;;4.25;3.60;;;9.10;99.90;;;;;;5054969;28;20033;-84
2021/11/04 04:05:04;;;;;;;4.18;3.67;;;9.10;99.90;;;;;;5055288;28;20399;-84
2021/11/04 04:07:31;;;;;;;4.97;3.90;;;9.00;99.90;;;;;;5053953;28;20445;-84
2021/11/04 04:09:57;;;;;;;5.80;3.88;;;9.50;99.90;;;;;;5052489;28;20358;-84
2021/11/04 04:12:23;;;;;;;5.60;4.00;;;9.00;99.90;;;;;;5057644;28;20029;-84
2021/11/04 04:14:49;;;;;;;5.35;4.22;;;9.00;99.90;;;;;;5054931;28;20033;-84
2021/11/04 04:17:16;;;;;;;5.72;3.63;;;8.90;99.90;;;;;;5055235;28;20086;-84
2021/11/04 04:19:42;;;;;;;5.53;3.78;;;8.90;99.90;;;;;;5054668;28;20591;-84
2021/11/04 04:22:08;;;;;;;4.43;3.83;;;9.40;99.90;;;;;;5051099;28;20104;-84
2021/11/04 04:24:33;;;;;;;4.30;3.63;;;8.90;99.90;;;;;;5056775;28;20021;-84
2021/11/04 04:27:00;;;;;;;4.05;3.65;;;9.50;99.90;;;;;;5054636;28;20048;-84
2021/11/04 04:29:26;;;;;;;4.82;3.67;;;8.90;99.90;;;;;;5055093;28;20025;-83
2021/11/04 04:31:51;;;;;;;6.35;4.18;;;9.00;99.90;;;;;;5054838;28;20045;-84
2021/11/04 04:34:17;;;;;;;5.20;3.67;;;9.50;99.90;;;;;;5049835;28;20039;-84
2021/11/04 04:36:43;;;;;;;3.92;3.53;;;9.00;99.90;;;;;;5055872;28;20029;-84
2021/11/04 04:39:08;;;;;;;4.32;3.92;;;9.30;99.90;;;;;;5053840;28;20063;-84
2021/11/04 04:41:34;;;;;;;4.25;3.60;;;8.90;99.90;;;;;;5054515;28;20041;-84
2021/11/04 04:44:00;;;;;;;5.80;5.18;;;8.80;99.90;;;;;;5055045;28;20037;-84
2021/11/04 04:46:25;;;;;;;6.47;4.53;;;8.80;99.90;;;;;;5052362;28;20033;-84
2021/11/04 04:48:52;;;;;;;6.45;5.20;;;8.70;99.90;;;;;;5052719;28;20029;-84
2021/11/04 04:51:17;;;;;;;6.03;4.70;;;8.80;99.90;;;;;;5056024;28;20032;-84
2021/11/04 04:53:43;;;;;;;6.90;5.40;;;9.40;99.90;;;;;;5054257;28;20028;-84
2021/11/04 04:56:09;;;;;;;7.55;5.57;;;9.30;99.90;;;;;;5054108;28;20048;-84
2021/11/04 04:58:35;;;;;;;6.90;5.90;;;9.10;99.90;;;;;;5053479;28;20078;-84
2021/11/04 05:01:01;;;;;;;7.32;5.95;;;8.80;99.90;;;;;;5051416;28;20404;-84
2021/11/04 05:03:26;;;;;;;6.93;6.22;;;9.40;99.90;;;;;;5055835;28;20596;-84
2021/11/04 05:05:53;;;;;;;6.30;5.47;;;8.80;99.90;;;;;;5054112;28;20119;-84
2021/11/04 05:08:18;;;;;;;6.38;5.60;;;9.40;99.90;;;;;;5054071;28;20036;-84
2021/11/04 05:10:44;;;;;;;7.15;5.80;;;8.90;99.90;;;;;;5054056;28;20020;-84
2021/11/04 05:13:10;;;;;;;6.07;5.47;;;9.40;99.90;;;;;;5048618;28;20449;-84
2021/11/04 05:15:35;;;;;;;6.00;5.40;;;8.80;99.90;;;;;;5056341;28;20096;-84
2021/11/04 05:18:03;;;;;;;8.85;6.55;;;9.30;99.90;;;;;;5052287;28;20108;-84
2021/11/04 05:20:29;;;;;;;6.95;5.95;;;9.10;99.90;;;;;;5054136;28;20020;-84
2021/11/04 05:22:54;;;;;;;6.22;5.63;;;8.40;99.90;;;;;;5054155;28;20119;-84
2021/11/04 05:25:20;;;;;;;6.47;5.50;;;8.90;99.90;;;;;;5050968;28;20133;-85
2021/11/04 05:27:48;;;;;;;6.72;5.60;;;8.80;99.90;;;;;;5053865;28;20173;-84
2021/11/04 05:30:16;;;;;;;5.95;5.32;;;9.10;99.90;;;;;;5054917;28;20078;-83
2021/11/04 05:32:42;;;;;;;6.05;5.45;;;8.30;99.90;;;;;;5051998;28;20037;-84
2021/11/04 05:35:08;;;;;;;7.15;6.32;;;8.80;99.90;;;;;;5054465;28;20385;-84
2021/11/04 05:37:34;;;;;;;16.33;12.70;;;8.20;99.90;;;;;;5052448;28;20439;-84
2021/11/04 05:40:00;;;;;;;13.00;10.93;;;8.30;99.90;;;;;;5050637;28;20118;-84
2021/11/04 05:42:25;;;;;;;10.35;9.27;;;8.90;99.90;;;;;;5055708;28;20021;-84
2021/11/04 05:44:51;;;;;;;12.02;8.00;;;8.80;99.90;;;;;;5054034;28;20037;-84
2021/11/04 05:47:17;;;;;;;9.88;7.50;;;8.80;99.90;;;;;;5053719;28;20523;-83
2021/11/04 05:49:43;;;;;;;9.43;7.20;;;8.20;99.90;;;;;;5053754;28;20158;-84
2021/11/04 05:52:10;;;;;;;8.73;7.90;;;8.70;99.90;;;;;;5048385;28;20086;-84
2021/11/04 05:54:37;;;;;;;8.65;7.80;;;8.00;99.90;;;;;;5054949;28;20404;-84
2021/11/04 05:57:03;;;;;;;7.38;6.68;;;8.00;99.90;;;;;;5051924;28;20520;-84
2021/11/04 05:59:29;;;;;;;8.07;6.43;;;8.00;99.90;;;;;;5053556;28;20032;-84
2021/11/04 06:01:55;;;;;;;7.93;6.65;;;8.60;99.90;;;;;;5053345;28;20484;-84
2021/11/04 06:04:21;;;;;;;8.68;6.57;;;8.00;99.90;;;;;;5050523;28;20124;-84
2021/11/04 06:06:47;;;;;;;7.93;6.35;;;8.00;99.90;;;;;;5053312;28;20075;-84
2021/11/04 06:09:13;;;;;;;7.65;6.30;;;8.10;99.90;;;;;;5054427;28;20083;-84
2021/11/04 06:11:38;;;;;;;6.97;6.20;;;8.20;99.90;;;;;;5053201;28;20029;-84
2021/11/04 06:14:05;;;;;;;8.32;6.47;;;8.20;99.90;;;;;;5053508;28;20033;-84
2021/11/04 06:16:30;;;;;;;7.03;6.32;;;8.30;99.90;;;;;;5051756;28;20179;-84
2021/11/04 06:18:56;;;;;;;7.05;6.35;;;8.40;99.90;;;;;;5050218;28;20045;-84
2021/11/04 06:21:22;;;;;;;7.80;6.60;;;8.50;99.90;;;;;;5055292;28;20041;-84
2021/11/04 06:23:47;;;;;;;6.60;5.78;;;8.40;99.90;;;;;;5053487;28;20033;-84
2021/11/04 06:26:16;;;;;;;8.43;6.80;;;8.50;99.90;;;;;;5056619;28;20137;-84
2021/11/04 06:28:42;;;;;;;7.80;6.78;;;9.00;99.90;;;;;;5056904;28;20021;-84
2021/11/04 06:31:08;;;;;;;9.88;7.95;;;8.90;99.90;;;;;;5052026;28;20045;-84
2021/11/04 06:33:34;;;;;;;16.38;11.30;;;8.40;99.90;;;;;;5058969;28;20051;-84
2021/11/04 06:36:00;;;;;;;16.63;12.35;;;8.80;99.90;;;;;;5054259;28;20025;-84
2021/11/04 06:38:25;;;;;;;22.05;15.75;;;8.30;99.90;;;;;;5057148;28;20041;-84
2021/11/04 06:40:51;;;;;;;19.00;15.00;;;8.20;99.90;;;;;;5057003;28;20048;-85
2021/11/04 06:43:18;;;;;;;20.08;14.68;;;8.80;99.90;;;;;;5052965;28;20086;-84
2021/11/04 06:45:47;;;;;;;18.90;13.90;;;8.20;99.90;;;;;;5056793;28;20423;-82
2021/11/04 06:48:21;;;;;;;15.63;11.55;;;8.30;99.90;;;;;;5058158;28;20025;-82
2021/11/04 06:50:49;;;;;;;13.10;10.05;;;8.90;99.90;;;;;;5057036;28;20025;-81
2021/11/04 06:53:20;;;;;;;11.43;8.95;;;9.10;99.90;;;;;;5056155;28;20029;-82
2021/11/04 06:55:51;;;;;;;11.48;9.35;;;8.60;99.90;;;;;;5056319;28;20491;-83
2021/11/04 06:58:18;;;;;;;10.32;8.77;;;9.20;99.90;;;;;;5052888;28;20074;-82
2021/11/04 07:00:46;;;;;;;9.63;8.13;;;9.20;99.90;;;;;;5056528;28;20025;-84
2021/11/04 07:03:18;;;;;;;8.30;7.40;;;8.70;99.90;;;;;;5057891;28;20029;-84
2021/11/04 07:05:45;;;;;;;8.32;7.43;;;8.80;99.90;;;;;;5055975;28;20035;-84
2021/11/04 07:08:20;;;;;;;9.38;8.48;;;8.90;99.90;;;;;;5056223;28;20118;-84
2021/11/04 07:10:47;;;;;;;11.88;8.07;;;9.00;99.90;;;;;;5054716;28;20443;-84
2021/11/04 07:13:14;;;;;;;8.70;7.63;;;9.30;99.90;;;;;;5050864;28;20029;-84
2021/11/04 07:15:42;;;;;;;10.45;7.78;;;9.60;99.90;;;;;;5057667;28;20021;-85
2021/11/04 07:18:09;;;;;;;12.32;7.38;;;9.10;99.90;;;;;;5055083;28;20126;-85
2021/11/04 07:20:38;;;;;;;11.15;8.05;;;8.90;99.90;;;;;;5056249;28;20503;-85
2021/11/04 07:23:07;;;;;;;10.18;8.30;;;9.80;99.90;;;;;;5056286;28;20032;-85
2021/11/04 07:25:34;;;;;;;10.52;7.47;;;9.60;99.90;;;;;;5054392;28;20043;-85
2021/11/04 07:28:13;;;;;;;8.88;7.65;;;10.10;99.90;;;;;;5052953;28;20090;-85
2021/11/04 07:30:40;;;;;;;8.45;7.55;;;11.50;99.90;;;;;;5065452;28;20032;-84
2021/11/04 07:33:06;;;;;;;9.40;7.70;;;11.50;99.90;;;;;;5056335;28;20523;-84
2021/11/04 07:35:37;;;;;;;10.98;7.63;;;10.60;99.90;;;;;;5055175;28;20072;-84
2021/11/04 07:38:06;;;;;;;7.93;7.07;;;10.30;99.90;;;;;;5055695;28;20434;-85
2021/11/04 07:40:32;;;;;;;8.40;6.28;;;10.00;99.90;;;;;;5054676;28;20029;-84
2021/11/04 07:42:59;;;;;;;7.10;6.07;;;9.90;99.90;;;;;;5052636;28;20021;-85
2021/11/04 07:45:26;;;;;;;8.02;7.22;;;10.40;99.90;;;;;;5057847;28;20548;-85
2021/11/04 07:47:52;;;;;;;11.38;7.45;;;10.50;99.90;;;;;;5055409;28;20041;-85
2021/11/04 07:50:22;;;;;;;8.30;6.40;;;12.00;99.90;;;;;;5054196;28;20036;-85
2021/11/04 07:52:48;;;;;;;7.75;6.10;;;13.00;99.90;;;;;;5054279;28;20032;-85
2021/11/04 07:55:15;;;;;;;10.50;6.70;;;16.60;99.90;;;;;;5051255;28;20113;-84
2021/11/04 07:57:41;;;;;;;5.70;4.95;;;18.90;99.90;;;;;;5056893;28;20064;-85
2021/11/04 08:00:13;;;;;;;6.00;5.40;;;17.60;99.90;;;;;;5055030;28;20028;-84
2021/11/04 08:02:42;;;;;;;8.02;6.68;;;14.40;99.90;;;;;;5055190;28;20036;-85
2021/11/04 08:05:10;;;;;;;7.65;6.03;;;13.00;99.90;;;;;;5055045;28;20025;-85
2021/11/04 08:07:37;;;;;;;7.38;6.68;;;12.60;99.90;;;;;;5054012;28;20501;-85
2021/11/04 08:10:05;;;;;;;10.30;7.60;;;12.10;99.90;;;;;;5051673;28;20037;-84
2021/11/04 08:12:32;;;;;;;7.90;6.47;;;12.30;99.90;;;;;;5056460;28;20033;-84
2021/11/04 08:15:03;;;;;;;6.20;5.60;;;12.30;99.90;;;;;;5055325;28;20087;-84
2021/11/04 08:17:28;;;;;;;6.28;5.28;;;11.70;99.90;;;;;;5055333;28;20029;-83
2021/11/04 08:19:54;;;;;;;6.72;5.47;;;12.30;99.90;;;;;;5055184;28;20028;-83
2021/11/04 08:22:20;;;;;;;6.90;5.72;;;11.90;99.90;;;;;;5050154;28;20024;-86
2021/11/04 08:24:47;;;;;;;6.70;5.50;;;11.90;99.90;;;;;;5051804;28;20127;-85
2021/11/04 08:27:16;;;;;;;7.05;5.47;;;12.10;99.90;;;;;;5055192;28;20508;-85
2021/11/04 08:29:43;;;;;;;6.88;5.63;;;11.60;99.90;;;;;;5053750;28;20036;-85
2021/11/04 08:32:11;;;;;;;9.18;5.53;;;11.20;99.90;;;;;;5053262;28;20401;-84
2021/11/04 08:34:37;;;;;;;6.75;5.80;;;10.80;99.90;;;;;;5052437;28;20020;-84
2021/11/04 08:37:03;;;;;;;7.35;5.70;;;10.60;99.90;;;;;;5051128;28;20037;-86
2021/11/04 08:39:30;;;;;;;5.97;4.32;;;10.40;99.90;;;;;;5057235;28;20397;-85
2021/11/04 08:41:56;;;;;;;5.43;4.47;;;10.70;99.90;;;;;;5054546;28;20025;-85
2021/11/04 08:44:22;;;;;;;4.75;4.20;;;11.20;99.90;;;;;;5057964;28;20059;-84
2021/11/04 08:46:48;;;;;;;3.92;3.53;;;11.60;99.90;;;;;;5060945;28;20029;-85
2021/11/04 08:49:14;;;;;;;4.28;3.53;;;12.40;99.90;;;;;;5050290;28;20379;-85
2021/11/04 08:51:40;;;;;;;5.82;3.70;;;15.70;99.90;;;;;;5056527;28;20029;-84
2021/11/04 08:54:07;;;;;;;5.43;3.80;;;19.10;99.90;;;;;;5054781;28;20424;-85
2021/11/04 08:56:34;;;;;;;4.13;3.65;;;17.30;99.90;;;;;;5054004;28;20036;-83
2021/11/04 08:59:00;;;;;;;4.75;4.00;;;15.80;99.90;;;;;;5054422;28;20044;-82
2021/11/04 09:01:27;;;;;;;3.80;3.50;;;15.20;99.90;;;;;;5051876;28;20083;-82
2021/11/04 09:03:53;;;;;;;5.10;2.97;;;14.40;99.90;;;;;;5053225;28;20104;-83
2021/11/04 09:06:18;;;;;;;3.65;3.20;;;13.40;99.90;;;;;;5055556;28;20104;-85
2021/11/04 09:08:44;;;;;;;4.60;3.25;;;12.30;99.90;;;;;;5052154;28;20032;-83
2021/11/04 09:11:10;;;;;;;4.85;3.80;;;11.80;99.90;;;;;;5052545;28;20025;-84
2021/11/04 09:13:35;;;;;;;4.05;3.53;;;11.70;99.90;;;;;;5053233;28;20040;-83
2021/11/04 09:16:01;;;;;;;4.20;3.50;;;10.90;99.90;;;;;;5050775;28;20513;-87
2021/11/04 09:18:26;;;;;;;6.43;3.97;;;11.40;99.90;;;;;;5056308;28;20504;-90
2021/11/04 09:20:52;;;;;;;7.85;4.30;;;10.80;99.90;;;;;;5052503;28;20439;-84
2021/11/04 09:23:18;;;;;;;7.45;4.25;;;11.10;99.90;;;;;;5053960;28;20032;-83
2021/11/04 09:25:43;;;;;;;7.63;4.32;;;11.40;99.90;;;;;;5053563;28;20045;-83
2021/11/04 09:28:09;;;;;;;4.38;3.97;;;11.60;99.90;;;;;;5049807;28;20021;-86
2021/11/04 09:30:35;;;;;;;4.55;4.13;;;11.70;99.90;;;;;;5054988;28;20025;-85
2021/11/04 09:33:01;;;;;;;5.72;4.28;;;12.80;99.90;;;;;;5054213;28;20033;-85
2021/11/04 09:35:26;;;;;;;4.05;3.65;;;13.00;99.90;;;;;;5054009;28;20021;-83
2021/11/04 09:37:53;;;;;;;4.00;3.60;;;13.20;99.90;;;;;;5053721;28;20039;-85
2021/11/04 09:40:19;;;;;;;4.57;3.65;;;16.60;99.90;;;;;;5050386;28;20401;-84
2021/11/04 09:42:47;;;;;;;4.70;3.15;;;19.60;99.90;;;;;;5054026;28;20372;-84
2021/11/04 09:45:13;;;;;;;4.28;3.10;;;24.30;99.90;;;;;;5053573;28;20025;-86
2021/11/04 09:47:40;;;;;;;3.65;2.60;;;22.40;99.90;;;;;;5052499;28;20037;-84
2021/11/04 09:50:12;;;;;;;4.35;2.47;;;19.80;99.90;;;;;;5052540;28;20028;-84
2021/11/04 09:52:41;;;;;;;3.67;2.40;;;17.30;99.90;;;;;;5051013;28;20026;-85
2021/11/04 09:55:19;;;;;;;3.03;2.72;;;16.20;99.90;;;;;;5048866;28;20044;-85
2021/11/04 09:57:50;;;;;;;3.65;2.80;;;15.00;99.90;;;;;;5031332;28;20800;-85
2021/11/04 10:00:17;;;;;;;3.97;2.30;;;14.10;99.90;;;;;;5058848;28;20029;-85
2021/11/04 10:02:45;;;;;;;4.05;2.60;;;13.50;99.90;;;;;;5057619;28;20035;-86
2021/11/04 10:05:13;;;;;;;2.30;2.10;;;13.40;99.90;;;;;;5057057;28;20052;-85
2021/11/04 10:07:48;;;;;;;2.40;2.20;;;13.10;99.90;;;;;;5055601;28;20040;-85
2021/11/04 10:10:17;;;;;;;2.35;2.00;;;13.00;99.90;;;;;;5037824;28;20032;-87
2021/11/04 10:13:05;;;;;;;2.10;1.90;;;12.90;99.90;;;;;;5058386;28;20087;-87
2021/11/04 10:15:33;;;;;;;2.65;1.80;;;12.90;99.90;;;;;;5058988;28;20036;-82
2021/11/04 10:18:15;;;;;;;2.65;2.10;;;13.70;99.90;;;;;;5057992;28;20036;-83
2021/11/04 10:20:43;;;;;;;5.57;2.30;;;13.60;99.90;;;;;;5057689;28;20519;-83
2021/11/04 10:23:12;;;;;;;2.85;2.15;;;14.10;99.90;;;;;;5056927;28;20112;-83
2021/11/04 10:25:38;;;;;;;6.43;2.33;;;13.30;99.90;;;;;;5055476;28;20048;-83
2021/11/04 10:28:28;;;;;;;2.60;2.08;;;13.40;99.90;;;;;;5053660;28;20051;-83
2021/11/04 10:30:55;;;;;;;3.45;2.05;;;12.80;99.90;;;;;;5067518;28;20024;-83
2021/11/04 10:33:23;;;;;;;2.08;1.88;;;12.80;99.90;;;;;;5058857;28;20489;-83
2021/11/04 10:36:09;;;;;;;3.13;1.73;;;12.30;99.90;;;;;;5057641;28;20048;-82
2021/11/04 10:38:41;;;;;;;2.60;1.80;;;12.20;99.90;;;;;;5056644;28;20033;-83
2021/11/04 10:41:18;;;;;;;2.63;1.75;;;12.00;99.90;;;;;;5056953;28;20048;-83
2021/11/04 10:43:44;;;;;;;1.65;1.50;;;12.10;99.90;;;;;;5056854;28;20086;-83
2021/11/04 10:46:12;;;;;;;2.10;1.73;;;12.40;99.90;;;;;;5052273;28;20025;-83
2021/11/04 10:48:43;;;;;;;2.42;1.70;;;14.00;99.90;;;;;;5070243;28;20033;-83
2021/11/04 10:51:17;;;;;;;2.22;1.80;;;18.80;99.90;;;;;;5057223;28;20109;-84
2021/11/04 10:53:43;;;;;;;2.78;1.60;;;19.30;99.90;;;;;;5056840;28;20021;-84
2021/11/04 10:56:14;;;;;;;2.60;2.10;;;18.60;99.90;;;;;;5056967;28;20104;-84
2021/11/04 10:58:40;;;;;;;3.20;2.10;;;24.10;99.90;;;;;;5055761;28;20063;-82
2021/11/04 11:01:05;;;;;;;4.63;2.45;;;28.40;99.90;;;;;;5053318;28;20098;-82
2021/11/04 11:03:32;;;;;;;2.92;1.92;;;29.70;99.90;;;;;;5058384;28;20016;-82
2021/11/04 11:06:05;;;;;;;4.20;1.92;;;29.70;99.90;;;;;;5055204;28;20036;-82
2021/11/04 11:08:31;;;;;;;1.95;1.85;;;28.70;99.90;;;;;;5055082;28;20107;-81
2021/11/04 11:10:57;;;;;;;2.10;1.88;;;29.30;99.90;;;;;;5055243;28;20028;-83
2021/11/04 11:13:23;;;;;;;2.17;1.80;;;27.10;99.90;;;;;;5053071;28;20029;-86
2021/11/04 11:15:55;;;;;;;2.55;1.70;;;22.40;99.90;;;;;;5056137;28;20087;-85
2021/11/04 11:18:23;;;;;;;2.47;2.00;;;19.20;99.90;;;;;;5058518;28;20473;-86
2021/11/04 11:20:50;;;;;;;2.38;2.00;;;17.70;99.90;;;;;;5055753;28;20035;-85
2021/11/04 11:23:22;;;;;;;2.67;1.77;;;16.70;99.90;;;;;;5056464;28;20064;-86
2021/11/04 11:25:57;;;;;;;2.38;1.80;;;18.20;99.90;;;;;;5055558;28;20420;-84
2021/11/04 11:28:29;;;;;;;2.22;1.85;;;25.60;99.90;;;;;;5053052;28;20059;-85
2021/11/04 11:31:11;;;;;;;2.60;1.70;;;29.20;99.90;;;;;;5053875;28;20558;-85
2021/11/04 11:33:37;;;;;;;2.08;1.80;;;30.90;99.90;;;;;;5058075;28;20409;-82
2021/11/04 11:36:19;;;;;;;2.80;2.00;;;31.60;99.90;;;;;;5055616;28;20061;-83
2021/11/04 11:38:57;;;;;;;3.08;2.20;;;33.20;99.90;;;;;;5055826;28;20140;-84
2021/11/04 11:41:26;;;;;;;3.45;2.20;;;32.20;99.90;;;;;;5055744;28;20067;-84
2021/11/04 11:43:56;;;;;;;3.03;2.03;;;31.10;99.90;;;;;;5054692;28;20713;-84
2021/11/04 11:46:22;;;;;;;2.55;2.20;;;26.20;99.90;;;;;;5051459;28;20037;-86
2021/11/04 11:49:12;;;;;;;4.35;2.30;;;22.10;99.90;;;;;;5055251;28;20036;-83
2021/11/04 11:51:43;;;;;;;2.53;2.33;;;19.60;99.90;;;;;;5064265;28;20032;-83
2021/11/04 11:54:09;;;;;;;3.47;2.15;;;17.30;99.90;;;;;;5055898;28;20494;-88
2021/11/04 11:56:35;;;;;;;3.22;2.47;;;16.60;99.90;;;;;;5055350;28;20061;-83
2021/11/04 11:59:20;;;;;;;3.50;2.42;;;15.60;99.90;;;;;;5055885;28;20063;-87
2021/11/04 12:01:49;;;;;;;3.50;2.30;;;15.70;99.90;;;;;;5055257;28;20035;-85
2021/11/04 12:04:27;;;;;;;3.20;2.42;;;15.00;99.90;;;;;;5051071;28;20013;-84
2021/11/04 12:06:58;;;;;;;4.85;2.55;;;14.90;99.90;;;;;;5052962;28;20051;-88
2021/11/04 12:09:39;;;;;;;4.78;2.50;;;14.60;99.90;;;;;;5055599;28;20032;-85
2021/11/04 12:12:07;;;;;;;3.65;2.30;;;14.50;99.90;;;;;;5054695;28;20032;-85
2021/11/04 12:14:35;;;;;;;3.60;2.08;;;17.60;99.90;;;;;;5054171;28;20032;-85
2021/11/04 12:17:01;;;;;;;2.83;1.85;;;22.90;99.90;;;;;;5054487;28;20024;-85
2021/11/04 12:19:54;;;;;;;3.67;2.13;;;26.10;99.90;;;;;;5052128;28;20035;-85
2021/11/04 12:22:32;;;;;;;2.97;2.08;;;28.00;99.90;;;;;;5036740;28;20150;-85
2021/11/04 12:25:13;;;;;;;3.83;2.58;;;22.30;99.90;;;;;;5052259;28;20166;-85
2021/11/04 12:27:44;;;;;;;2.85;2.00;;;19.20;99.90;;;;;;5056653;28;20443;-85
2021/11/04 12:30:12;;;;;;;3.40;2.20;;;17.70;99.90;;;;;;5054137;28;20032;-85
2021/11/04 12:32:38;;;;;;;2.25;2.00;;;19.90;99.90;;;;;;5054784;28;20074;-85
2021/11/04 12:35:05;;;;;;;3.65;2.40;;;25.00;99.90;;;;;;5054701;28;20112;-85
2021/11/04 12:37:33;;;;;;;3.45;2.47;;;23.10;99.90;;;;;;5053244;28;20088;-85
2021/11/04 12:40:04;;;;;;;3.15;2.10;;;20.10;99.90;;;;;;5051267;28;20396;-85
2021/11/04 12:42:30;;;;;;;3.45;1.90;;;18.60;99.90;;;;;;5056622;28;20102;-85
2021/11/04 12:44:55;;;;;;;2.00;1.90;;;17.60;99.90;;;;;;5054765;28;20481;-85
2021/11/04 12:47:22;;;;;;;3.13;2.20;;;16.80;99.90;;;;;;5053338;28;20520;-85
2021/11/04 12:49:49;;;;;;;6.28;3.17;;;16.10;99.90;;;;;;5054448;28;20019;-85
2021/11/04 12:52:15;;;;;;;3.45;2.78;;;15.30;99.90;;;;;;5050470;28;20112;-85
2021/11/04 12:54:45;;;;;;;3.55;2.53;;;15.10;99.90;;;;;;5056149;28;20028;-85